Time;durP1;ratioP1;P1;durP2;ratioP2;P2;SDS_P1;SDS_P2;PMS_P1;PMS_P2;Temp;Humidity;BMP_temperature;BMP_pressure;BME280_temperature;BME280_humidity;BME280_pressure;Samples;Min_cycle;Max_cycle;Signal;HPM_P1;HPM_P2
2022/08/02 05:03:02;;;;;;;14.82;6.32;;;18.30;99.90;;;;;;5164798;23;20056;-72
2022/08/02 05:05:28;;;;;;;8.32;4.00;;;18.40;99.90;;;;;;4904741;29;20310;-73
2022/08/02 05:07:54;;;;;;;10.10;4.47;;;18.50;99.90;;;;;;4908911;29;20194;-71
2022/08/02 05:10:21;;;;;;;9.90;4.35;;;18.50;99.90;;;;;;4908070;29;20044;-70
2022/08/02 05:12:46;;;;;;;9.50;4.00;;;18.60;99.90;;;;;;4892175;29;20032;-72
2022/08/02 05:15:15;;;;;;;11.50;3.97;;;18.80;99.90;;;;;;4907593;29;20104;-71
2022/08/02 05:17:45;;;;;;;;;;;18.90;99.90;;;;;;4892556;29;20222;-71
2022/08/02 05:20:15;;;;;;;8.98;4.13;;;19.10;99.90;;;;;;4889120;29;20185;-70
2022/08/02 05:22:46;;;;;;;6.72;3.85;;;19.20;99.90;;;;;;4889632;29;20088;-70
2022/08/02 05:25:12;;;;;;;8.27;3.65;;;19.30;99.90;;;;;;4891426;29;20021;-71
2022/08/02 05:27:38;;;;;;;7.57;3.53;;;19.40;99.90;;;;;;4891119;29;20100;-70
2022/08/02 05:30:05;;;;;;;4.65;2.70;;;19.50;99.90;;;;;;4888807;29;20029;-70
2022/08/02 05:32:34;;;;;;;5.50;3.00;;;19.50;99.90;;;;;;4889094;29;20487;-72
2022/08/02 05:35:00;;;;;;;8.52;2.97;;;19.70;99.90;;;;;;4874171;29;20037;-71
2022/08/02 05:37:26;;;;;;;9.07;3.17;;;19.70;99.90;;;;;;4907891;29;20025;-72
2022/08/02 05:39:58;;;;;;;8.13;2.90;;;19.90;99.90;;;;;;4891167;29;20043;-71
2022/08/02 05:42:24;;;;;;;6.03;2.83;;;20.00;99.90;;;;;;4907559;29;20307;-72
2022/08/02 05:44:54;;;;;;;4.63;2.60;;;20.10;99.90;;;;;;4891528;29;20100;-71
2022/08/02 05:47:19;;;;;;;6.03;2.70;;;20.10;99.90;;;;;;4889278;29;20100;-72
2022/08/02 05:49:45;;;;;;;6.72;3.05;;;20.00;99.90;;;;;;4908305;29;20028;-72
2022/08/02 05:52:16;;;;;;;7.32;3.40;;;20.00;99.90;;;;;;4891185;29;20060;-70
2022/08/02 05:55:03;;;;;;;6.63;3.20;;;20.00;99.90;;;;;;4907939;29;20020;-71
2022/08/02 05:57:41;;;;;;;5.85;2.85;;;20.10;99.90;;;;;;4907508;29;20037;-71
2022/08/02 06:00:12;;;;;;;7.18;2.97;;;20.10;99.90;;;;;;4907905;29;20032;-71
2022/08/02 06:02:41;;;;;;;8.73;3.13;;;20.30;99.90;;;;;;4918537;29;20072;-71
2022/08/02 06:05:06;;;;;;;;;;;20.50;99.90;;;;;;4927149;29;20036;-72
2022/08/02 06:07:35;;;;;;;9.57;3.22;;;20.60;99.90;;;;;;4920316;29;20194;-73
2022/08/02 06:10:04;;;;;;;;;;;20.70;99.90;;;;;;4927093;29;20036;-72
2022/08/02 06:12:33;;;;;;;4.85;2.40;;;20.80;99.90;;;;;;4926019;29;19913;-71
2022/08/02 06:15:02;;;;;;;6.32;3.25;;;20.90;99.90;;;;;;4926253;29;20189;-71
2022/08/02 06:17:29;;;;;;;;;;;21.00;99.90;;;;;;4909549;29;20048;-71
2022/08/02 06:19:59;;;;;;;7.45;2.72;;;21.10;99.90;;;;;;4926188;29;19954;-70
2022/08/02 06:22:30;;;;;;;5.43;2.30;;;21.20;99.90;;;;;;4908603;29;20048;-71
2022/08/02 06:25:03;;;;;;;5.53;2.25;;;21.30;99.90;;;;;;4925886;29;20114;-72
2022/08/02 06:27:29;;;;;;;4.15;2.60;;;21.40;99.90;;;;;;4905049;29;20037;-71
2022/08/02 06:30:02;;;;;;;8.50;2.90;;;21.30;99.90;;;;;;4925249;29;20115;-70
2022/08/02 06:32:30;;;;;;;5.90;2.95;;;21.30;99.90;;;;;;4926867;29;20040;-71
2022/08/02 06:35:03;;;;;;;5.70;3.23;;;21.40;99.90;;;;;;4929573;29;20095;-71
2022/08/02 06:38:06;;;;;;;5.28;2.47;;;21.40;99.90;;;;;;4913459;29;20468;-69
2022/08/02 06:40:40;;;;;;;7.63;2.88;;;21.40;99.90;;;;;;4831069;29;20060;-71
2022/08/02 06:43:32;;;;;;;7.93;3.28;;;21.50;99.90;;;;;;4836520;29;20238;-72
2022/08/02 06:45:58;;;;;;;6.43;2.47;;;21.50;99.90;;;;;;4925218;29;20046;-71
2022/08/02 06:48:24;;;;;;;6.63;3.28;;;21.50;99.90;;;;;;4923423;29;20052;-71
2022/08/02 06:50:50;;;;;;;6.85;2.90;;;21.60;99.90;;;;;;4906839;29;20025;-72
2022/08/02 06:53:15;;;;;;;6.40;3.00;;;21.60;99.90;;;;;;4906615;29;20210;-71
2022/08/02 06:55:41;;;;;;;15.90;10.85;;;21.70;99.90;;;;;;4906677;29;20025;-71
2022/08/02 06:58:07;;;;;;;5.78;3.80;;;21.80;99.90;;;;;;4907331;29;20262;-73
2022/08/02 07:00:33;;;;;;;9.07;4.00;;;22.00;99.90;;;;;;4889322;29;20041;-71
2022/08/02 07:03:01;;;;;;;5.57;2.92;;;22.10;99.90;;;;;;4906561;29;20101;-71
2022/08/02 07:05:27;;;;;;;5.25;2.40;;;22.20;99.90;;;;;;4907077;29;20065;-70
2022/08/02 07:07:55;;;;;;;8.35;3.03;;;22.30;99.90;;;;;;4906575;29;20040;-74
2022/08/02 07:10:24;;;;;;;6.82;2.70;;;22.40;99.90;;;;;;4917310;29;20039;-77
2022/08/02 07:12:50;;;;;;;5.97;2.47;;;22.60;99.90;;;;;;4908436;29;20377;-71
2022/08/02 07:15:16;;;;;;;4.85;2.65;;;22.70;99.90;;;;;;4924943;29;20032;-74
2022/08/02 07:17:42;;;;;;;7.53;3.25;;;22.90;99.90;;;;;;4908645;29;20028;-77
2022/08/02 07:20:08;;;;;;;5.45;2.55;;;23.10;99.90;;;;;;4929622;29;20075;-72
2022/08/02 07:22:34;;;;;;;9.23;3.25;;;23.30;99.90;;;;;;4929698;29;20048;-72
2022/08/02 07:25:00;;;;;;;6.13;2.80;;;23.50;99.90;;;;;;4930037;29;20043;-70
2022/08/02 07:27:55;;;;;;;5.43;2.75;;;23.40;99.60;;;;;;4930385;29;20317;-70
2022/08/02 07:30:24;;;;;;;7.95;3.20;;;23.60;97.60;;;;;;4911663;29;20042;-70
2022/08/02 07:32:51;;;;;;;5.43;2.83;;;23.60;97.10;;;;;;4929262;29;20051;-70
2022/08/02 07:35:20;;;;;;;3.90;1.98;;;23.80;96.50;;;;;;4898211;29;20143;-70
2022/08/02 07:37:47;;;;;;;4.82;2.58;;;24.30;95.70;;;;;;4929857;29;20103;-70
2022/08/02 07:40:20;;;;;;;4.05;2.38;;;24.60;94.60;;;;;;4889935;29;20175;-74
2022/08/02 07:42:54;;;;;;;5.07;3.03;;;24.70;93.60;;;;;;4929973;29;20036;-70
2022/08/02 07:45:28;;;;;;;5.20;2.28;;;24.60;93.60;;;;;;4929188;29;20032;-70
2022/08/02 07:47:55;;;;;;;4.30;2.50;;;24.70;93.50;;;;;;4896501;29;20043;-69
2022/08/02 07:50:27;;;;;;;4.05;2.10;;;24.90;93.30;;;;;;4888209;29;20023;-71
2022/08/02 07:52:53;;;;;;;4.85;2.42;;;25.10;92.80;;;;;;4928716;29;20100;-70
2022/08/02 07:55:27;;;;;;;5.43;2.70;;;25.30;92.20;;;;;;4929163;29;20043;-70
2022/08/02 07:57:55;;;;;;;4.13;2.17;;;25.10;92.10;;;;;;4912633;29;20072;-70
2022/08/02 08:00:55;;;;;;;5.68;2.90;;;25.20;92.10;;;;;;4896743;29;20144;-70
2022/08/02 08:03:27;;;;;;;3.90;2.47;;;25.40;91.70;;;;;;4928912;29;20059;-71
2022/08/02 08:06:33;;;;;;;4.65;2.22;;;25.40;91.30;;;;;;4915857;29;20035;-69
2022/08/02 08:09:27;;;;;;;4.88;2.65;;;25.30;91.30;;;;;;4911695;29;20074;-71
2022/08/02 08:11:53;;;;;;;4.10;2.40;;;25.40;91.10;;;;;;4893148;29;20051;-71
2022/08/02 08:14:19;;;;;;;5.20;2.80;;;25.50;90.90;;;;;;4893432;29;20330;-71
2022/08/02 08:16:44;;;;;;;5.13;2.53;;;25.40;90.90;;;;;;4908715;29;20067;-70
2022/08/02 08:19:10;;;;;;;6.43;2.40;;;25.40;90.90;;;;;;4892979;29;20040;-71
2022/08/02 08:21:36;;;;;;;4.68;2.63;;;25.30;91.10;;;;;;4877374;29;20058;-73
2022/08/02 08:24:03;;;;;;;4.07;2.83;;;25.30;90.90;;;;;;4909745;29;20040;-72
2022/08/02 08:26:29;;;;;;;4.38;2.38;;;25.00;91.00;;;;;;4909293;29;20124;-71
2022/08/02 08:28:56;;;;;;;4.50;2.63;;;25.00;91.60;;;;;;4893104;29;20033;-71
2022/08/02 08:31:22;;;;;;;4.10;2.42;;;25.00;91.50;;;;;;4908460;29;20353;-71
2022/08/02 08:33:53;;;;;;;5.50;2.72;;;25.00;91.20;;;;;;4904241;29;20029;-71
2022/08/02 08:36:30;;;;;;;6.45;2.80;;;25.10;90.80;;;;;;4909990;29;20218;-73
2022/08/02 08:39:13;;;;;;;7.32;3.90;;;25.10;90.90;;;;;;4909668;29;20039;-72
2022/08/02 08:41:42;;;;;;;5.32;3.30;;;25.30;90.60;;;;;;4909125;29;20111;-72
2022/08/02 08:44:08;;;;;;;6.03;3.03;;;25.20;90.40;;;;;;4909376;29;20084;-74
2022/08/02 08:46:37;;;;;;;7.22;3.30;;;25.30;90.00;;;;;;4891898;29;20095;-73
2022/08/02 08:49:08;;;;;;;4.75;2.63;;;25.40;89.40;;;;;;4892722;29;20067;-75
2022/08/02 08:51:42;;;;;;;5.90;3.10;;;25.40;89.00;;;;;;4892452;29;20047;-73
2022/08/02 08:54:13;;;;;;;5.70;3.35;;;25.40;88.20;;;;;;4876107;29;20028;-73
2022/08/02 08:56:40;;;;;;;4.65;3.05;;;25.50;88.10;;;;;;4892190;29;20342;-73
2022/08/02 08:59:06;;;;;;;5.40;3.30;;;25.70;88.00;;;;;;4870038;29;20098;-72
2022/08/02 09:01:33;;;;;;;7.05;2.80;;;25.60;88.10;;;;;;4820936;29;20343;-73
2022/08/02 09:03:59;;;;;;;7.30;2.85;;;25.90;87.90;;;;;;4871065;29;20216;-73
2022/08/02 09:06:25;;;;;;;5.78;3.25;;;26.10;86.50;;;;;;4868714;29;20044;-72
2022/08/02 09:08:52;;;;;;;7.15;3.25;;;26.00;85.90;;;;;;4837564;29;20055;-72
2022/08/02 09:11:26;;;;;;;3.28;2.72;;;26.20;84.90;;;;;;4869485;29;20059;-72
2022/08/02 09:13:54;;;;;;;8.77;2.83;;;26.40;84.70;;;;;;4870384;29;20081;-72
2022/08/02 09:16:41;;;;;;;4.22;2.80;;;26.70;83.30;;;;;;4879378;29;20112;-72
2022/08/02 09:19:23;;;;;;;3.88;3.00;;;26.70;82.80;;;;;;4889349;29;20072;-72
2022/08/02 09:22:10;;;;;;;9.55;3.75;;;26.80;83.40;;;;;;4857144;29;20073;-72
2022/08/02 09:24:47;;;;;;;9.32;3.53;;;27.20;82.50;;;;;;4888082;29;20048;-72
2022/08/02 09:27:19;;;;;;;5.65;3.42;;;27.40;81.10;;;;;;4889145;29;20088;-75
2022/08/02 09:29:51;;;;;;;6.82;3.20;;;27.30;79.80;;;;;;4869014;29;20056;-72
2022/08/02 09:32:17;;;;;;;5.53;3.55;;;27.40;79.40;;;;;;4853414;29;20045;-72
2022/08/02 09:34:53;;;;;;;6.10;3.40;;;27.50;80.20;;;;;;4845780;29;20051;-72
2022/08/02 09:37:27;;;;;;;4.88;2.97;;;27.60;80.20;;;;;;4882336;29;20511;-73
2022/08/02 09:39:54;;;;;;;7.07;2.95;;;27.70;79.10;;;;;;4888679;29;20033;-71
2022/08/02 09:42:20;;;;;;;6.45;2.85;;;27.80;79.30;;;;;;4888430;29;20036;-72
2022/08/02 09:44:58;;;;;;;6.47;3.15;;;27.80;78.80;;;;;;4888008;29;20055;-73
2022/08/02 09:47:25;;;;;;;6.47;3.08;;;28.00;78.60;;;;;;4888407;29;20070;-71
2022/08/02 09:49:54;;;;;;;4.93;3.00;;;28.20;77.50;;;;;;4887787;29;20025;-73
2022/08/02 09:52:31;;;;;;;4.90;2.95;;;28.30;77.40;;;;;;4872000;29;20036;-72
2022/08/02 09:55:04;;;;;;;6.10;2.75;;;28.00;76.80;;;;;;4886438;29;20048;-71
2022/08/02 09:57:32;;;;;;;6.22;3.35;;;28.20;77.10;;;;;;4868649;29;20420;-71
2022/08/02 09:59:58;;;;;;;4.25;3.15;;;28.30;77.20;;;;;;4870253;29;20036;-73
2022/08/02 10:02:24;;;;;;;5.40;3.10;;;28.30;76.80;;;;;;4884540;29;20124;-73
2022/08/02 10:04:51;;;;;;;4.65;2.85;;;28.40;76.00;;;;;;4887521;29;20037;-71
2022/08/02 10:07:18;;;;;;;6.90;3.65;;;28.50;76.00;;;;;;4888360;29;20066;-72
2022/08/02 10:09:45;;;;;;;6.78;2.70;;;28.70;75.20;;;;;;4900087;29;20342;-73
2022/08/02 10:12:14;;;;;;;7.70;3.20;;;28.80;74.90;;;;;;4862759;29;20024;-72
2022/08/02 10:14:40;;;;;;;6.88;3.00;;;29.00;74.00;;;;;;4906368;29;20616;-73
2022/08/02 10:17:07;;;;;;;8.77;3.03;;;29.10;73.40;;;;;;4879436;29;20083;-76
2022/08/02 10:19:34;;;;;;;6.13;3.15;;;29.00;74.00;;;;;;4856200;29;20065;-73
2022/08/02 10:22:12;;;;;;;6.68;3.42;;;29.30;73.40;;;;;;4871614;29;20323;-73
2022/08/02 10:24:41;;;;;;;5.28;2.70;;;29.40;73.00;;;;;;4871817;29;20024;-73
2022/08/02 10:27:33;;;;;;;10.20;2.83;;;29.50;72.50;;;;;;4888586;29;20199;-75
2022/08/02 10:30:17;;;;;;;4.90;3.00;;;29.90;72.30;;;;;;4872305;29;20025;-75
2022/08/02 10:33:22;;;;;;;6.22;2.80;;;29.80;71.60;;;;;;4879521;29;20040;-76
2022/08/02 10:35:50;;;;;;;6.05;3.00;;;30.00;70.90;;;;;;4887550;29;20459;-73
2022/08/02 10:38:17;;;;;;;5.32;2.85;;;30.00;70.80;;;;;;4887173;29;20055;-73
2022/08/02 10:40:54;;;;;;;6.10;3.08;;;30.00;70.60;;;;;;4887361;29;20040;-76
2022/08/02 10:43:44;;;;;;;3.47;2.58;;;30.20;69.40;;;;;;4887799;29;20082;-76
2022/08/02 10:46:31;;;;;;;4.05;2.60;;;30.40;68.70;;;;;;4865573;29;20037;-78
2022/08/02 10:49:22;;;;;;;3.85;1.90;;;30.50;69.30;;;;;;4870935;29;20112;-76
2022/08/02 10:51:53;;;;;;;3.72;2.40;;;30.50;68.50;;;;;;4870954;29;20036;-74
2022/08/02 10:55:01;;;;;;;4.45;2.13;;;30.80;68.10;;;;;;4886534;29;20084;-78
2022/08/02 10:57:34;;;;;;;;;;;30.90;67.60;;;;;;4885486;29;20044;-78
2022/08/02 11:00:32;;;;;;;4.45;2.25;;;31.00;66.00;;;;;;4852277;29;19912;-78
2022/08/02 11:03:02;;;;;;;5.57;1.90;;;30.80;66.80;;;;;;4851485;29;20358;-76
2022/08/02 11:06:22;;;;;;;3.50;2.13;;;31.00;66.60;;;;;;4822648;29;20056;-78
2022/08/02 11:09:42;;;;;;;4.45;2.70;;;31.40;66.60;;;;;;4837132;29;20033;-77
2022/08/02 11:12:41;;;;;;;3.92;2.25;;;31.70;65.20;;;;;;4863149;29;20177;-76
2022/08/02 11:15:19;;;;;;;4.75;2.33;;;31.80;65.00;;;;;;4833233;29;20053;-76
2022/08/02 11:17:56;;;;;;;3.60;2.45;;;31.60;65.20;;;;;;4868112;29;20071;-76
2022/08/02 11:20:23;;;;;;;4.45;1.95;;;31.80;64.50;;;;;;4876042;29;20070;-76
2022/08/02 11:23:40;;;;;;;2.97;2.40;;;31.80;64.20;;;;;;4851972;29;20037;-76
2022/08/02 11:26:33;;;;;;;3.20;2.17;;;31.60;64.80;;;;;;4868714;29;20032;-76
2022/08/02 11:29:07;;;;;;;4.57;2.05;;;31.20;63.60;;;;;;4866655;29;20077;-76
2022/08/02 11:31:42;;;;;;;4.20;2.28;;;31.60;64.30;;;;;;4845061;29;20045;-70
2022/08/02 11:34:08;;;;;;;6.53;2.17;;;32.10;63.50;;;;;;4886852;29;20043;-71
2022/08/02 11:36:49;;;;;;;9.27;2.55;;;32.70;62.60;;;;;;4886486;29;20159;-71
2022/08/02 11:39:17;;;;;;;9.82;2.75;;;33.00;61.90;;;;;;4882214;29;20034;-70
2022/08/02 11:41:49;;;;;;;;;;;33.40;61.30;;;;;;4868697;29;20259;-71
2022/08/02 11:44:15;;;;;;;5.55;2.10;;;34.40;60.10;;;;;;4867915;29;20217;-69
2022/08/02 11:46:41;;;;;;;5.55;1.90;;;35.00;58.90;;;;;;4860129;29;20061;-72
2022/08/02 11:49:13;;;;;;;3.75;2.03;;;35.90;57.50;;;;;;4870356;29;20358;-72
2022/08/02 11:51:50;;;;;;;3.38;1.85;;;36.70;56.00;;;;;;4869392;29;20029;-73
2022/08/02 11:54:30;;;;;;;3.72;1.85;;;37.30;55.20;;;;;;4868595;29;20097;-75
2022/08/02 11:57:16;;;;;;;4.18;1.98;;;37.90;54.40;;;;;;4868414;29;20038;-76
2022/08/02 12:00:01;;;;;;;5.63;1.70;;;38.20;53.60;;;;;;4866091;29;20029;-76
2022/08/02 12:02:44;;;;;;;4.30;3.22;;;39.00;53.10;;;;;;4869715;29;20120;-76
2022/08/02 12:05:16;;;;;;;5.50;4.32;;;40.00;51.90;;;;;;4888484;29;20039;-76
2022/08/02 12:07:43;;;;;;;4.15;3.60;;;40.80;50.40;;;;;;4873910;29;20055;-77
2022/08/02 12:10:18;;;;;;;3.22;1.80;;;41.10;49.80;;;;;;4873510;29;20067;-73
2022/08/02 12:12:58;;;;;;;5.05;2.00;;;40.60;49.40;;;;;;4890000;29;20037;-74
2022/08/02 12:15:43;;;;;;;4.40;1.88;;;40.60;49.60;;;;;;4886489;29;20033;-75
2022/08/02 12:20:59;;;;;;;3.78;1.45;;;41.20;49.20;;;;;;4870662;29;20041;-76
2022/08/02 12:23:26;;;;;;;3.60;1.58;;;41.90;48.80;;;;;;4872303;29;20049;-73
2022/08/02 12:26:08;;;;;;;2.77;1.57;;;43.10;47.50;;;;;;4855452;29;20033;-78
2022/08/02 12:28:39;;;;;;;4.57;1.85;;;42.60;47.40;;;;;;4855840;29;20087;-76
2022/08/02 12:31:13;;;;;;;3.75;1.75;;;42.40;47.70;;;;;;4839322;29;20050;-77
2022/08/02 12:33:52;;;;;;;2.83;1.58;;;42.20;47.30;;;;;;4854623;29;20315;-76
2022/08/02 12:36:28;;;;;;;4.32;1.40;;;42.20;47.80;;;;;;4871649;29;20044;-76
2022/08/02 12:38:57;;;;;;;1.95;1.40;;;42.50;47.30;;;;;;4871522;29;20236;-77
2022/08/02 12:41:50;;;;;;;3.35;1.60;;;43.10;46.80;;;;;;4870661;29;20097;-76
2022/08/02 12:44:44;;;;;;;2.58;1.50;;;43.80;46.00;;;;;;4871119;29;20029;-75
2022/08/02 12:47:10;;;;;;;3.00;1.50;;;44.80;46.10;;;;;;4870798;29;20053;-76
2022/08/02 12:50:14;;;;;;;3.03;1.80;;;44.60;44.60;;;;;;4839532;29;20315;-76
2022/08/02 12:52:43;;;;;;;2.72;1.30;;;44.40;44.80;;;;;;4870539;29;20060;-75
2022/08/02 12:55:15;;;;;;;3.28;1.35;;;45.20;44.60;;;;;;4854527;29;20056;-75
2022/08/02 12:57:58;;;;;;;3.22;2.30;;;45.10;44.80;;;;;;4870738;29;20154;-76
2022/08/02 13:00:32;;;;;;;2.22;1.52;;;45.60;43.50;;;;;;4870451;29;20100;-76
2022/08/02 13:02:58;;;;;;;2.97;1.40;;;45.80;44.50;;;;;;4867710;29;20148;-74
2022/08/02 13:05:28;;;;;;;1.90;1.58;;;46.00;43.20;;;;;;4870807;29;20095;-75
2022/08/02 13:07:55;;;;;;;3.03;1.50;;;44.00;43.60;;;;;;4870220;29;20539;-75
2022/08/02 13:10:21;;;;;;;;;;;43.80;44.30;;;;;;4871606;29;20029;-75
2022/08/02 13:12:50;;;;;;;3.43;1.80;;;44.60;44.10;;;;;;4870280;29;19964;-75
2022/08/02 13:15:16;;;;;;;2.28;1.50;;;45.30;43.50;;;;;;4852973;29;20473;-75
2022/08/02 13:17:42;;;;;;;2.70;1.40;;;45.80;43.20;;;;;;4885777;29;20044;-75
2022/08/02 13:20:45;;;;;;;3.07;1.30;;;46.60;43.10;;;;;;4872759;29;20100;-75
2022/08/02 13:23:11;;;;;;;2.65;1.60;;;47.20;41.90;;;;;;4871681;29;20038;-75
2022/08/02 13:25:46;;;;;;;3.37;1.60;;;47.00;42.20;;;;;;4849679;29;20125;-76
2022/08/02 13:28:11;;;;;;;2.80;1.45;;;47.30;42.40;;;;;;4851188;29;20323;-75
2022/08/02 13:30:54;;;;;;;2.73;1.37;;;47.10;42.20;;;;;;4849318;29;20037;-76
2022/08/02 13:33:20;;;;;;;3.17;1.90;;;47.10;42.00;;;;;;4850543;29;20371;-75
2022/08/02 13:35:52;;;;;;;2.37;1.57;;;48.00;41.60;;;;;;4850262;29;20030;-75
2022/08/02 13:39:10;;;;;;;2.42;1.60;;;48.90;41.30;;;;;;4858854;29;20032;-74
2022/08/02 13:42:37;;;;;;;3.65;1.70;;;46.60;41.50;;;;;;4857938;29;20307;-74
2022/08/02 13:45:47;;;;;;;2.60;1.30;;;46.80;41.90;;;;;;4850493;29;20034;-76
2022/08/02 13:48:15;;;;;;;3.15;1.70;;;46.80;42.60;;;;;;4797212;29;20038;-76
2022/08/02 13:50:53;;;;;;;4.18;1.80;;;47.60;41.90;;;;;;4812128;29;20124;-74
2022/08/02 13:53:22;;;;;;;3.97;1.60;;;47.30;41.30;;;;;;4797281;29;20039;-75
2022/08/02 13:59:40;;;;;;;2.60;1.52;;;46.40;41.70;;;;;;4848832;29;20102;-80
2022/08/02 14:05:51;;;;;;;4.13;1.20;;;46.00;41.80;;;;;;4800732;29;20055;-77
2022/08/02 14:08:37;;;;;;;3.15;1.20;;;46.50;41.50;;;;;;4848924;29;20037;-76
2022/08/02 14:11:03;;;;;;;3.83;1.70;;;46.90;40.90;;;;;;4849055;29;20085;-76
2022/08/02 14:13:29;;;;;;;2.43;1.20;;;47.70;40.70;;;;;;4867400;29;20098;-78
2022/08/02 14:15:55;;;;;;;1.70;1.10;;;48.50;40.60;;;;;;4850530;29;20041;-77
2022/08/02 14:18:24;;;;;;;2.87;1.20;;;48.60;40.20;;;;;;4862631;29;20033;-77
2022/08/02 14:20:50;;;;;;;2.63;1.17;;;47.90;40.20;;;;;;4866330;29;20874;-77
2022/08/02 14:23:24;;;;;;;2.70;1.30;;;46.90;40.70;;;;;;4851579;29;20037;-78
2022/08/02 14:25:50;;;;;;;1.90;1.20;;;45.10;41.30;;;;;;4851298;29;20037;-76
2022/08/02 14:28:57;;;;;;;2.30;1.10;;;44.80;41.70;;;;;;4866806;29;20040;-75
2022/08/02 14:31:23;;;;;;;2.13;1.30;;;43.20;43.10;;;;;;4835702;29;20097;-76
2022/08/02 14:33:48;;;;;;;2.67;1.35;;;43.20;42.60;;;;;;4865784;29;20041;-77
2022/08/02 14:36:17;;;;;;;2.25;1.17;;;44.60;42.70;;;;;;4879658;29;20037;-78
2022/08/02 14:38:43;;;;;;;2.05;1.00;;;45.80;40.90;;;;;;4886762;29;20078;-77
2022/08/02 14:41:09;;;;;;;2.43;1.00;;;47.30;41.30;;;;;;4870792;29;20048;-77
2022/08/02 14:46:53;;;;;;;1.80;1.00;;;48.60;39.60;;;;;;4886876;29;20048;-78
2022/08/02 14:49:25;;;;;;;3.72;1.13;;;49.30;39.80;;;;;;4875017;29;20055;-77
2022/08/02 14:51:51;;;;;;;2.45;1.00;;;48.20;39.20;;;;;;4870470;29;20052;-80
2022/08/02 14:54:18;;;;;;;2.15;1.17;;;47.60;39.70;;;;;;4870457;29;20343;-78
2022/08/02 14:56:50;;;;;;;3.03;1.37;;;48.50;39.40;;;;;;4888043;29;20021;-80
2022/08/02 14:59:19;;;;;;;2.72;1.30;;;49.00;39.90;;;;;;4887724;29;20093;-78
2022/08/02 15:01:53;;;;;;;2.22;1.10;;;49.70;38.90;;;;;;4885557;29;20041;-78
2022/08/02 15:04:22;;;;;;;4.90;1.20;;;50.30;38.10;;;;;;4888072;29;20100;-79
2022/08/02 15:06:51;;;;;;;2.05;1.00;;;51.40;37.90;;;;;;4887630;29;20040;-81
2022/08/02 15:09:29;;;;;;;3.17;1.25;;;50.40;37.50;;;;;;4887849;29;20039;-76
2022/08/02 15:12:09;;;;;;;2.85;1.00;;;50.70;37.60;;;;;;4871396;29;20323;-81
2022/08/02 15:14:43;;;;;;;1.52;1.05;;;50.70;37.20;;;;;;4887342;29;20052;-78
2022/08/02 15:17:09;;;;;;;3.45;1.13;;;48.30;37.90;;;;;;4887718;29;20296;-77
2022/08/02 15:19:35;;;;;;;2.00;1.35;;;46.40;38.90;;;;;;4887623;29;20081;-76
2022/08/02 15:22:07;;;;;;;1.83;1.00;;;44.90;39.80;;;;;;4870685;29;20220;-78
2022/08/02 15:24:33;;;;;;;3.65;1.10;;;43.10;41.40;;;;;;4886842;29;20037;-77
2022/08/02 15:26:58;;;;;;;2.75;1.38;;;42.10;41.60;;;;;;4886683;29;20037;-78
2022/08/02 15:29:24;;;;;;;3.83;1.25;;;41.80;42.60;;;;;;4887793;29;20036;-78
2022/08/02 15:31:56;;;;;;;3.85;0.95;;;43.00;41.80;;;;;;4870427;29;20327;-78
2022/08/02 15:34:24;;;;;;;1.70;1.00;;;43.70;41.30;;;;;;4871074;29;20048;-77
2022/08/02 15:36:50;;;;;;;1.75;1.00;;;45.10;41.20;;;;;;4887319;29;20048;-79
2022/08/02 15:39:19;;;;;;;2.47;1.00;;;46.60;39.50;;;;;;4871319;29;20041;-79
2022/08/02 15:41:47;;;;;;;1.50;1.00;;;48.30;39.70;;;;;;4873490;29;20315;-79
2022/08/02 15:44:13;;;;;;;1.92;0.85;;;49.60;38.00;;;;;;4890556;29;20080;-79
2022/08/02 15:46:38;;;;;;;2.17;1.03;;;50.10;38.00;;;;;;4887024;29;20318;-77
2022/08/02 15:49:07;;;;;;;4.73;0.97;;;50.80;37.90;;;;;;4873006;29;20081;-78
2022/08/02 15:51:35;;;;;;;3.72;0.90;;;49.90;37.20;;;;;;4890497;29;20029;-79
2022/08/02 15:54:27;;;;;;;4.22;1.45;;;50.00;38.10;;;;;;4889874;29;20041;-78
2022/08/02 15:56:54;;;;;;;1.73;1.00;;;49.80;37.80;;;;;;4861324;29;20040;-78
2022/08/02 15:59:23;;;;;;;4.43;0.90;;;49.40;38.20;;;;;;4890852;29;20357;-79
2022/08/02 16:01:49;;;;;;;2.80;1.08;;;49.90;37.70;;;;;;4872811;29;20089;-77
2022/08/02 16:04:20;;;;;;;2.30;1.00;;;49.90;37.70;;;;;;4873979;29;20231;-78
2022/08/02 16:07:02;;;;;;;3.83;1.00;;;49.10;37.60;;;;;;4889998;29;20036;-78
2022/08/02 16:09:30;;;;;;;1.15;0.82;;;48.40;37.60;;;;;;4890339;29;20032;-78
2022/08/02 16:12:08;;;;;;;1.90;1.13;;;48.50;37.90;;;;;;4890364;29;20063;-77
2022/08/02 16:14:33;;;;;;;2.03;0.80;;;49.10;37.50;;;;;;4891041;29;20040;-78
2022/08/02 16:19:58;;;;;;;1.65;1.10;;;49.20;37.60;;;;;;4852507;29;20053;-78
2022/08/02 16:22:30;;;;;;;2.47;1.00;;;49.40;37.20;;;;;;4858091;29;20045;-77
2022/08/02 16:24:56;;;;;;;2.22;1.00;;;49.70;37.90;;;;;;4876131;29;20068;-76
2022/08/02 16:27:34;;;;;;;1.87;0.90;;;50.40;37.40;;;;;;4880298;29;20025;-77
2022/08/02 16:30:18;;;;;;;2.38;1.20;;;50.30;36.90;;;;;;4884320;29;20300;-77
2022/08/02 16:32:56;;;;;;;3.28;1.60;;;49.00;37.10;;;;;;4880691;29;20076;-78
2022/08/02 16:35:22;;;;;;;1.63;0.80;;;48.30;37.60;;;;;;4865429;29;20214;-76
2022/08/02 16:37:50;;;;;;;4.13;0.90;;;49.00;38.30;;;;;;4882368;29;20040;-76
2022/08/02 16:40:15;;;;;;;1.50;0.90;;;49.10;37.70;;;;;;4890562;29;20092;-77
2022/08/02 16:42:41;;;;;;;2.83;1.23;;;49.30;38.00;;;;;;4890283;29;20100;-77
2022/08/02 16:45:13;;;;;;;2.20;1.30;;;49.50;37.50;;;;;;4889391;29;20045;-78
2022/08/02 16:47:51;;;;;;;1.92;1.00;;;49.40;37.60;;;;;;4890597;29;20063;-77
2022/08/02 16:50:17;;;;;;;1.55;0.93;;;49.30;37.40;;;;;;4889380;29;20047;-78
2022/08/02 16:52:46;;;;;;;3.85;1.00;;;47.80;37.80;;;;;;4889018;29;20113;-76
2022/08/02 16:55:12;;;;;;;2.85;1.10;;;45.80;38.90;;;;;;4887985;29;20112;-78
2022/08/02 16:57:44;;;;;;;4.30;1.25;;;43.70;40.20;;;;;;4889649;29;20511;-78
2022/08/02 17:00:13;;;;;;;3.33;1.13;;;41.80;41.50;;;;;;4888905;29;20047;-78
2022/08/02 17:02:39;;;;;;;1.95;1.10;;;40.30;42.80;;;;;;4888535;29;20105;-76
2022/08/02 17:05:06;;;;;;;2.38;1.27;;;39.30;43.50;;;;;;4900726;29;20040;-74
2022/08/02 17:07:32;;;;;;;2.22;1.13;;;38.30;44.40;;;;;;4898975;29;20101;-74
2022/08/02 17:09:58;;;;;;;2.20;1.20;;;37.60;45.30;;;;;;4899044;29;20092;-72
2022/08/02 17:12:24;;;;;;;2.20;1.50;;;37.20;45.60;;;;;;4889696;29;20052;-77
2022/08/02 17:14:50;;;;;;;3.88;1.60;;;36.80;46.20;;;;;;4888651;29;20264;-77
2022/08/02 17:17:15;;;;;;;2.40;1.70;;;36.40;46.70;;;;;;4871682;29;20160;-75
2022/08/02 17:19:41;;;;;;;4.50;1.90;;;36.20;46.70;;;;;;4865212;29;20053;-80
2022/08/02 17:22:07;;;;;;;4.07;2.75;;;36.20;46.70;;;;;;4889744;29;20051;-76
2022/08/02 17:24:33;;;;;;;2.97;1.30;;;35.90;46.90;;;;;;4873013;29;20029;-76
2022/08/02 17:26:59;;;;;;;2.75;1.42;;;35.70;47.80;;;;;;4889298;29;20319;-77
2022/08/02 17:29:24;;;;;;;2.10;1.30;;;35.50;47.60;;;;;;4889776;29;20396;-77
2022/08/02 17:31:50;;;;;;;2.78;1.50;;;35.10;48.00;;;;;;4888793;29;20053;-76
2022/08/02 17:34:16;;;;;;;3.15;1.50;;;34.90;48.30;;;;;;4890061;29;20044;-79
2022/08/02 17:36:43;;;;;;;4.60;1.25;;;34.70;49.20;;;;;;4876752;29;20211;-78
2022/08/02 17:39:09;;;;;;;2.08;1.30;;;34.50;48.80;;;;;;4861284;29;20263;-77
2022/08/02 17:41:36;;;;;;;7.45;2.22;;;34.50;49.50;;;;;;4870874;29;20103;-78
2022/08/02 17:44:02;;;;;;;2.63;1.58;;;34.10;49.20;;;;;;4853947;29;20204;-78
2022/08/02 17:46:27;;;;;;;3.63;1.73;;;33.80;49.50;;;;;;4854006;29;20049;-77
2022/08/02 17:51:37;;;;;;;4.05;1.40;;;33.30;50.30;;;;;;4870696;29;20037;-77
2022/08/02 17:54:03;;;;;;;2.38;1.30;;;33.40;50.60;;;;;;4851451;29;20089;-79
2022/08/02 17:56:29;;;;;;;1.77;1.30;;;33.50;51.40;;;;;;4839222;29;20042;-77
2022/08/02 17:58:55;;;;;;;2.28;1.30;;;33.70;51.50;;;;;;4870235;29;20106;-78
2022/08/02 18:01:31;;;;;;;3.40;1.45;;;33.70;50.60;;;;;;4869853;29;20052;-77
2022/08/02 18:03:57;;;;;;;2.70;1.50;;;33.60;51.20;;;;;;4852829;29;20224;-78
2022/08/02 18:06:23;;;;;;;3.47;1.50;;;33.50;50.50;;;;;;4870288;29;20045;-77
2022/08/02 18:08:48;;;;;;;5.43;1.90;;;33.30;50.50;;;;;;4869975;29;20108;-76
2022/08/02 18:11:14;;;;;;;3.90;1.63;;;33.20;51.20;;;;;;4873777;29;20219;-77
2022/08/02 18:13:40;;;;;;;2.80;1.80;;;32.90;51.30;;;;;;4854061;29;20041;-77
2022/08/02 18:16:05;;;;;;;3.80;2.13;;;32.70;51.80;;;;;;4867962;29;20033;-76
2022/08/02 18:18:31;;;;;;;3.72;2.00;;;32.50;51.90;;;;;;4870298;29;20037;-76
2022/08/02 18:20:59;;;;;;;2.65;1.55;;;32.20;52.20;;;;;;4870215;29;20120;-75
2022/08/02 18:23:24;;;;;;;3.03;1.47;;;32.00;52.60;;;;;;4870372;29;20053;-75
2022/08/02 18:25:50;;;;;;;2.55;1.50;;;31.80;52.80;;;;;;4870079;29;20434;-75
2022/08/02 18:28:16;;;;;;;5.07;1.50;;;31.50;53.60;;;;;;4870398;29;20036;-76
2022/08/02 18:30:42;;;;;;;2.97;1.70;;;31.20;53.20;;;;;;4872677;29;20038;-76
2022/08/02 18:33:08;;;;;;;2.42;1.40;;;31.00;53.60;;;;;;4869372;29;20089;-76
2022/08/02 18:35:34;;;;;;;3.88;1.50;;;30.90;54.40;;;;;;4870169;29;20030;-78